sensor_id;sensor_type;location;lat;lon;timestamp;P1;durP1;ratioP1;P2;durP2;ratioP2
17441;SDS011;8838;50.144;8.176;2023-05-14T00:00:10;4.82;;;4.32;;
17441;SDS011;8838;50.144;8.176;2023-05-14T00:02:38;6.20;;;4.05;;
17441;SDS011;8838;50.144;8.176;2023-05-14T00:05:07;8.10;;;4.23;;
17441;SDS011;8838;50.144;8.176;2023-05-14T00:07:34;7.00;;;4.43;;
17441;SDS011;8838;50.144;8.176;2023-05-14T00:10:01;7.15;;;4.28;;
17441;SDS011;8838;50.144;8.176;2023-05-14T00:12:28;6.22;;;3.83;;
17441;SDS011;8838;50.144;8.176;2023-05-14T00:14:55;6.57;;;4.00;;
17441;SDS011;8838;50.144;8.176;2023-05-14T00:17:22;8.87;;;3.80;;
17441;SDS011;8838;50.144;8.176;2023-05-14T00:19:48;6.85;;;4.00;;
17441;SDS011;8838;50.144;8.176;2023-05-14T00:22:16;6.43;;;4.70;;
17441;SDS011;8838;50.144;8.176;2023-05-14T00:24:43;5.22;;;4.40;;
17441;SDS011;8838;50.144;8.176;2023-05-14T00:27:10;9.27;;;4.28;;
17441;SDS011;8838;50.144;8.176;2023-05-14T00:29:37;5.82;;;4.25;;
17441;SDS011;8838;50.144;8.176;2023-05-14T00:32:04;8.25;;;5.32;;
17441;SDS011;8838;50.144;8.176;2023-05-14T00:34:32;8.65;;;5.97;;
17441;SDS011;8838;50.144;8.176;2023-05-14T00:36:58;7.13;;;4.20;;
17441;SDS011;8838;50.144;8.176;2023-05-14T00:39:27;6.60;;;4.50;;
17441;SDS011;8838;50.144;8.176;2023-05-14T00:41:54;6.28;;;4.25;;
17441;SDS011;8838;50.144;8.176;2023-05-14T00:44:20;6.78;;;4.70;;
17441;SDS011;8838;50.144;8.176;2023-05-14T00:46:47;8.20;;;4.37;;
17441;SDS011;8838;50.144;8.176;2023-05-14T00:49:14;6.28;;;4.00;;
17441;SDS011;8838;50.144;8.176;2023-05-14T00:51:42;5.45;;;3.90;;
17441;SDS011;8838;50.144;8.176;2023-05-14T00:54:11;4.82;;;4.10;;
17441;SDS011;8838;50.144;8.176;2023-05-14T00:56:40;9.38;;;4.13;;
17441;SDS011;8838;50.144;8.176;2023-05-14T00:59:07;6.30;;;4.40;;
17441;SDS011;8838;50.144;8.176;2023-05-14T01:01:34;7.88;;;4.30;;
17441;SDS011;8838;50.144;8.176;2023-05-14T01:04:01;7.47;;;4.03;;
17441;SDS011;8838;50.144;8.176;2023-05-14T01:06:33;5.47;;;4.40;;
17441;SDS011;8838;50.144;8.176;2023-05-14T01:09:08;5.53;;;4.28;;
17441;SDS011;8838;50.144;8.176;2023-05-14T01:11:46;8.05;;;4.50;;
17441;SDS011;8838;50.144;8.176;2023-05-14T01:14:19;6.78;;;4.50;;
17441;SDS011;8838;50.144;8.176;2023-05-14T01:16:49;5.22;;;4.32;;
17441;SDS011;8838;50.144;8.176;2023-05-14T01:19:25;10.07;;;4.33;;
17441;SDS011;8838;50.144;8.176;2023-05-14T01:22:00;6.40;;;4.60;;
17441;SDS011;8838;50.144;8.176;2023-05-14T01:24:27;8.03;;;4.90;;
17441;SDS011;8838;50.144;8.176;2023-05-14T01:26:53;6.63;;;4.50;;
17441;SDS011;8838;50.144;8.176;2023-05-14T01:29:25;6.43;;;4.40;;
17441;SDS011;8838;50.144;8.176;2023-05-14T01:31:54;5.27;;;4.33;;
17441;SDS011;8838;50.144;8.176;2023-05-14T01:34:24;7.17;;;4.23;;
17441;SDS011;8838;50.144;8.176;2023-05-14T01:36:53;8.03;;;4.27;;
17441;SDS011;8838;50.144;8.176;2023-05-14T01:39:23;7.40;;;4.60;;
17441;SDS011;8838;50.144;8.176;2023-05-14T01:41:52;4.70;;;4.13;;
17441;SDS011;8838;50.144;8.176;2023-05-14T01:44:19;7.97;;;4.97;;
17441;SDS011;8838;50.144;8.176;2023-05-14T01:46:47;5.80;;;4.20;;
17441;SDS011;8838;50.144;8.176;2023-05-14T01:49:13;8.33;;;4.13;;
17441;SDS011;8838;50.144;8.176;2023-05-14T01:51:42;5.50;;;3.77;;
17441;SDS011;8838;50.144;8.176;2023-05-14T01:54:09;5.27;;;3.70;;
17441;SDS011;8838;50.144;8.176;2023-05-14T01:56:37;6.57;;;4.10;;
17441;SDS011;8838;50.144;8.176;2023-05-14T01:59:04;5.73;;;3.83;;
17441;SDS011;8838;50.144;8.176;2023-05-14T02:01:31;5.63;;;4.30;;
17441;SDS011;8838;50.144;8.176;2023-05-14T02:04:10;4.27;;;3.70;;
17441;SDS011;8838;50.144;8.176;2023-05-14T02:06:37;6.67;;;4.27;;
17441;SDS011;8838;50.144;8.176;2023-05-14T02:09:04;8.93;;;4.70;;
17441;SDS011;8838;50.144;8.176;2023-05-14T02:11:31;5.67;;;4.60;;
17441;SDS011;8838;50.144;8.176;2023-05-14T02:13:59;7.90;;;4.70;;
17441;SDS011;8838;50.144;8.176;2023-05-14T02:16:27;7.00;;;4.67;;
17441;SDS011;8838;50.144;8.176;2023-05-14T02:18:54;6.47;;;4.73;;
17441;SDS011;8838;50.144;8.176;2023-05-14T02:21:20;6.53;;;4.80;;
17441;SDS011;8838;50.144;8.176;2023-05-14T02:23:47;6.57;;;4.90;;
17441;SDS011;8838;50.144;8.176;2023-05-14T02:26:15;5.90;;;4.20;;
17441;SDS011;8838;50.144;8.176;2023-05-14T02:28:42;6.37;;;4.60;;
17441;SDS011;8838;50.144;8.176;2023-05-14T02:31:10;4.80;;;4.30;;
17441;SDS011;8838;50.144;8.176;2023-05-14T02:33:38;7.27;;;4.50;;
17441;SDS011;8838;50.144;8.176;2023-05-14T02:36:07;4.97;;;4.10;;
17441;SDS011;8838;50.144;8.176;2023-05-14T02:38:34;8.77;;;4.37;;
17441;SDS011;8838;50.144;8.176;2023-05-14T02:41:00;5.90;;;4.30;;
17441;SDS011;8838;50.144;8.176;2023-05-14T02:43:27;5.57;;;4.13;;
17441;SDS011;8838;50.144;8.176;2023-05-14T02:45:54;6.37;;;4.17;;
17441;SDS011;8838;50.144;8.176;2023-05-14T02:48:22;5.03;;;3.93;;
17441;SDS011;8838;50.144;8.176;2023-05-14T02:50:50;4.50;;;3.93;;
17441;SDS011;8838;50.144;8.176;2023-05-14T02:53:17;7.40;;;3.53;;
17441;SDS011;8838;50.144;8.176;2023-05-14T02:55:44;4.00;;;3.60;;
17441;SDS011;8838;50.144;8.176;2023-05-14T02:58:11;5.97;;;3.50;;
17441;SDS011;8838;50.144;8.176;2023-05-14T03:00:39;5.50;;;3.60;;
17441;SDS011;8838;50.144;8.176;2023-05-14T03:03:05;7.67;;;4.00;;
17441;SDS011;8838;50.144;8.176;2023-05-14T03:05:34;5.50;;;4.20;;
17441;SDS011;8838;50.144;8.176;2023-05-14T03:08:01;6.63;;;4.00;;
17441;SDS011;8838;50.144;8.176;2023-05-14T03:10:28;6.97;;;4.43;;
17441;SDS011;8838;50.144;8.176;2023-05-14T03:12:56;7.90;;;4.43;;
17441;SDS011;8838;50.144;8.176;2023-05-14T03:15:22;5.23;;;4.33;;
17441;SDS011;8838;50.144;8.176;2023-05-14T03:17:49;4.23;;;3.83;;
17441;SDS011;8838;50.144;8.176;2023-05-14T03:20:16;8.03;;;4.80;;
17441;SDS011;8838;50.144;8.176;2023-05-14T03:22:44;6.17;;;4.43;;
17441;SDS011;8838;50.144;8.176;2023-05-14T03:25:11;8.13;;;3.70;;
17441;SDS011;8838;50.144;8.176;2023-05-14T03:27:38;5.00;;;4.50;;
17441;SDS011;8838;50.144;8.176;2023-05-14T03:30:06;6.27;;;3.97;;
17441;SDS011;8838;50.144;8.176;2023-05-14T03:32:33;4.70;;;3.93;;
17441;SDS011;8838;50.144;8.176;2023-05-14T03:35:01;7.20;;;4.20;;
17441;SDS011;8838;50.144;8.176;2023-05-14T03:37:30;5.70;;;4.00;;
17441;SDS011;8838;50.144;8.176;2023-05-14T03:39:58;5.20;;;4.00;;
17441;SDS011;8838;50.144;8.176;2023-05-14T03:42:25;3.80;;;3.37;;
17441;SDS011;8838;50.144;8.176;2023-05-14T03:44:52;6.10;;;3.23;;
17441;SDS011;8838;50.144;8.176;2023-05-14T03:47:19;6.17;;;3.40;;
17441;SDS011;8838;50.144;8.176;2023-05-14T03:49:46;4.03;;;3.63;;
17441;SDS011;8838;50.144;8.176;2023-05-14T03:52:13;4.43;;;3.60;;
17441;SDS011;8838;50.144;8.176;2023-05-14T03:54:40;6.43;;;4.30;;
17441;SDS011;8838;50.144;8.176;2023-05-14T03:57:08;4.10;;;3.70;;
17441;SDS011;8838;50.144;8.176;2023-05-14T03:59:35;4.97;;;3.37;;
17441;SDS011;8838;50.144;8.176;2023-05-14T04:02:02;5.10;;;3.53;;
17441;SDS011;8838;50.144;8.176;2023-05-14T04:04:32;5.37;;;3.57;;
17441;SDS011;8838;50.144;8.176;2023-05-14T04:06:59;5.60;;;4.07;;
17441;SDS011;8838;50.144;8.176;2023-05-14T04:09:26;7.07;;;4.33;;
17441;SDS011;8838;50.144;8.176;2023-05-14T04:11:53;5.50;;;4.03;;
17441;SDS011;8838;50.144;8.176;2023-05-14T04:14:21;4.70;;;3.90;;
17441;SDS011;8838;50.144;8.176;2023-05-14T04:16:47;4.63;;;4.07;;
17441;SDS011;8838;50.144;8.176;2023-05-14T04:19:15;6.07;;;4.00;;
17441;SDS011;8838;50.144;8.176;2023-05-14T04:21:41;6.53;;;4.20;;
17441;SDS011;8838;50.144;8.176;2023-05-14T04:24:09;6.30;;;3.77;;
17441;SDS011;8838;50.144;8.176;2023-05-14T04:26:36;5.53;;;4.10;;
17441;SDS011;8838;50.144;8.176;2023-05-14T04:29:03;6.53;;;4.17;;
17441;SDS011;8838;50.144;8.176;2023-05-14T04:31:31;5.13;;;4.33;;
17441;SDS011;8838;50.144;8.176;2023-05-14T04:33:58;5.03;;;4.10;;
17441;SDS011;8838;50.144;8.176;2023-05-14T04:36:25;4.60;;;3.83;;
17441;SDS011;8838;50.144;8.176;2023-05-14T04:38:52;6.80;;;3.70;;
17441;SDS011;8838;50.144;8.176;2023-05-14T04:41:20;4.53;;;3.50;;
17441;SDS011;8838;50.144;8.176;2023-05-14T04:43:48;4.93;;;3.53;;
17441;SDS011;8838;50.144;8.176;2023-05-14T04:46:15;4.63;;;3.97;;
17441;SDS011;8838;50.144;8.176;2023-05-14T04:48:43;4.07;;;3.63;;
17441;SDS011;8838;50.144;8.176;2023-05-14T04:51:10;4.73;;;4.00;;
17441;SDS011;8838;50.144;8.176;2023-05-14T04:53:39;6.43;;;4.43;;
17441;SDS011;8838;50.144;8.176;2023-05-14T04:56:06;7.50;;;4.50;;
17441;SDS011;8838;50.144;8.176;2023-05-14T04:58:32;6.50;;;4.30;;
17441;SDS011;8838;50.144;8.176;2023-05-14T05:00:59;4.23;;;3.83;;
17441;SDS011;8838;50.144;8.176;2023-05-14T05:03:26;5.10;;;4.00;;
17441;SDS011;8838;50.144;8.176;2023-05-14T05:05:55;9.70;;;4.03;;
17441;SDS011;8838;50.144;8.176;2023-05-14T05:08:21;6.27;;;3.80;;
17441;SDS011;8838;50.144;8.176;2023-05-14T05:10:49;5.20;;;4.00;;
17441;SDS011;8838;50.144;8.176;2023-05-14T05:13:18;6.70;;;4.53;;
17441;SDS011;8838;50.144;8.176;2023-05-14T05:15:45;5.83;;;4.23;;
17441;SDS011;8838;50.144;8.176;2023-05-14T05:18:11;5.50;;;4.00;;
17441;SDS011;8838;50.144;8.176;2023-05-14T05:20:38;9.33;;;4.43;;
17441;SDS011;8838;50.144;8.176;2023-05-14T05:23:06;6.70;;;4.00;;
17441;SDS011;8838;50.144;8.176;2023-05-14T05:25:33;6.80;;;4.07;;
17441;SDS011;8838;50.144;8.176;2023-05-14T05:28:00;6.30;;;4.13;;
17441;SDS011;8838;50.144;8.176;2023-05-14T05:30:27;4.77;;;3.87;;
17441;SDS011;8838;50.144;8.176;2023-05-14T05:32:54;6.87;;;4.37;;
17441;SDS011;8838;50.144;8.176;2023-05-14T05:35:21;4.90;;;4.07;;
17441;SDS011;8838;50.144;8.176;2023-05-14T05:37:50;7.40;;;4.20;;
17441;SDS011;8838;50.144;8.176;2023-05-14T05:40:18;4.35;;;3.85;;
17441;SDS011;8838;50.144;8.176;2023-05-14T05:42:45;5.37;;;4.37;;
17441;SDS011;8838;50.144;8.176;2023-05-14T05:45:12;6.05;;;4.68;;
17441;SDS011;8838;50.144;8.176;2023-05-14T05:47:38;5.35;;;4.30;;
17441;SDS011;8838;50.144;8.176;2023-05-14T05:50:08;6.07;;;4.60;;
17441;SDS011;8838;50.144;8.176;2023-05-14T05:52:36;6.10;;;5.22;;
17441;SDS011;8838;50.144;8.176;2023-05-14T05:55:03;7.43;;;5.03;;
17441;SDS011;8838;50.144;8.176;2023-05-14T05:57:32;10.00;;;5.00;;
17441;SDS011;8838;50.144;8.176;2023-05-14T05:59:59;7.15;;;5.32;;
17441;SDS011;8838;50.144;8.176;2023-05-14T06:02:33;6.30;;;5.28;;
17441;SDS011;8838;50.144;8.176;2023-05-14T06:05:00;6.57;;;4.93;;
17441;SDS011;8838;50.144;8.176;2023-05-14T06:07:27;7.30;;;5.05;;
17441;SDS011;8838;50.144;8.176;2023-05-14T06:09:54;9.02;;;5.88;;
17441;SDS011;8838;50.144;8.176;2023-05-14T06:12:21;8.80;;;6.07;;
17441;SDS011;8838;50.144;8.176;2023-05-14T06:14:50;7.93;;;6.18;;
17441;SDS011;8838;50.144;8.176;2023-05-14T06:17:19;7.47;;;5.70;;
17441;SDS011;8838;50.144;8.176;2023-05-14T06:19:46;7.60;;;5.90;;
17441;SDS011;8838;50.144;8.176;2023-05-14T06:22:12;8.43;;;6.13;;
17441;SDS011;8838;50.144;8.176;2023-05-14T06:24:41;11.30;;;6.68;;
17441;SDS011;8838;50.144;8.176;2023-05-14T06:27:08;8.43;;;6.18;;
17441;SDS011;8838;50.144;8.176;2023-05-14T06:29:35;8.43;;;6.22;;
17441;SDS011;8838;50.144;8.176;2023-05-14T06:32:03;10.73;;;5.90;;
17441;SDS011;8838;50.144;8.176;2023-05-14T06:34:31;6.95;;;5.78;;
17441;SDS011;8838;50.144;8.176;2023-05-14T06:36:58;7.30;;;5.70;;
17441;SDS011;8838;50.144;8.176;2023-05-14T06:39:27;7.75;;;6.05;;
17441;SDS011;8838;50.144;8.176;2023-05-14T06:41:54;7.70;;;5.45;;
17441;SDS011;8838;50.144;8.176;2023-05-14T06:44:22;6.63;;;5.93;;
17441;SDS011;8838;50.144;8.176;2023-05-14T06:46:49;6.82;;;5.95;;
17441;SDS011;8838;50.144;8.176;2023-05-14T06:49:18;7.95;;;5.70;;
17441;SDS011;8838;50.144;8.176;2023-05-14T06:51:45;7.28;;;5.80;;
17441;SDS011;8838;50.144;8.176;2023-05-14T06:54:12;6.57;;;5.28;;
17441;SDS011;8838;50.144;8.176;2023-05-14T06:56:38;8.02;;;5.25;;
17441;SDS011;8838;50.144;8.176;2023-05-14T06:59:05;6.25;;;5.63;;
17441;SDS011;8838;50.144;8.176;2023-05-14T07:01:32;7.13;;;5.65;;
17441;SDS011;8838;50.144;8.176;2023-05-14T07:03:59;6.40;;;5.22;;
17441;SDS011;8838;50.144;8.176;2023-05-14T07:06:27;8.45;;;5.32;;
17441;SDS011;8838;50.144;8.176;2023-05-14T07:08:54;7.95;;;5.50;;
17441;SDS011;8838;50.144;8.176;2023-05-14T07:11:21;7.88;;;5.80;;
17441;SDS011;8838;50.144;8.176;2023-05-14T07:13:47;6.38;;;5.68;;
17441;SDS011;8838;50.144;8.176;2023-05-14T07:16:14;5.88;;;5.30;;
17441;SDS011;8838;50.144;8.176;2023-05-14T07:18:41;8.00;;;5.22;;
17441;SDS011;8838;50.144;8.176;2023-05-14T07:21:08;7.63;;;5.50;;
17441;SDS011;8838;50.144;8.176;2023-05-14T07:23:36;6.15;;;5.18;;
17441;SDS011;8838;50.144;8.176;2023-05-14T07:26:03;4.78;;;4.00;;
17441;SDS011;8838;50.144;8.176;2023-05-14T07:28:31;5.88;;;4.25;;
17441;SDS011;8838;50.144;8.176;2023-05-14T07:30:58;5.85;;;3.42;;
17441;SDS011;8838;50.144;8.176;2023-05-14T07:33:25;5.60;;;3.55;;
17441;SDS011;8838;50.144;8.176;2023-05-14T07:35:52;4.50;;;3.30;;
17441;SDS011;8838;50.144;8.176;2023-05-14T07:38:19;3.75;;;3.38;;
17441;SDS011;8838;50.144;8.176;2023-05-14T07:40:47;5.45;;;3.08;;
17441;SDS011;8838;50.144;8.176;2023-05-14T07:43:14;3.92;;;3.25;;
17441;SDS011;8838;50.144;8.176;2023-05-14T07:45:41;4.00;;;3.35;;
17441;SDS011;8838;50.144;8.176;2023-05-14T07:48:08;4.15;;;3.00;;
17441;SDS011;8838;50.144;8.176;2023-05-14T07:50:35;3.47;;;2.88;;
17441;SDS011;8838;50.144;8.176;2023-05-14T07:53:02;3.85;;;3.05;;
17441;SDS011;8838;50.144;8.176;2023-05-14T07:55:32;3.85;;;2.97;;
17441;SDS011;8838;50.144;8.176;2023-05-14T07:58:00;3.78;;;2.88;;
17441;SDS011;8838;50.144;8.176;2023-05-14T08:00:27;4.05;;;3.00;;
17441;SDS011;8838;50.144;8.176;2023-05-14T08:02:54;3.90;;;3.08;;
17441;SDS011;8838;50.144;8.176;2023-05-14T08:05:20;4.85;;;3.42;;
17441;SDS011;8838;50.144;8.176;2023-05-14T08:07:47;5.53;;;3.00;;
17441;SDS011;8838;50.144;8.176;2023-05-14T08:10:14;3.17;;;2.85;;
17441;SDS011;8838;50.144;8.176;2023-05-14T08:12:41;4.03;;;2.90;;
17441;SDS011;8838;50.144;8.176;2023-05-14T08:15:09;3.97;;;2.92;;
17441;SDS011;8838;50.144;8.176;2023-05-14T08:17:37;4.63;;;3.00;;
17441;SDS011;8838;50.144;8.176;2023-05-14T08:20:04;3.53;;;3.05;;
17441;SDS011;8838;50.144;8.176;2023-05-14T08:22:32;3.75;;;2.97;;
17441;SDS011;8838;50.144;8.176;2023-05-14T08:24:59;3.35;;;3.05;;
17441;SDS011;8838;50.144;8.176;2023-05-14T08:27:27;4.40;;;3.50;;
17441;SDS011;8838;50.144;8.176;2023-05-14T08:29:54;2.92;;;2.70;;
17441;SDS011;8838;50.144;8.176;2023-05-14T08:32:22;3.90;;;2.75;;
17441;SDS011;8838;50.144;8.176;2023-05-14T08:34:49;3.20;;;2.90;;
17441;SDS011;8838;50.144;8.176;2023-05-14T08:37:17;3.13;;;2.80;;
17441;SDS011;8838;50.144;8.176;2023-05-14T08:39:43;3.40;;;3.03;;
17441;SDS011;8838;50.144;8.176;2023-05-14T08:42:11;3.10;;;2.80;;
17441;SDS011;8838;50.144;8.176;2023-05-14T08:44:42;5.20;;;2.83;;
17441;SDS011;8838;50.144;8.176;2023-05-14T08:47:14;3.25;;;2.45;;
17441;SDS011;8838;50.144;8.176;2023-05-14T08:49:45;4.47;;;2.80;;
17441;SDS011;8838;50.144;8.176;2023-05-14T08:52:14;2.97;;;2.60;;
17441;SDS011;8838;50.144;8.176;2023-05-14T08:54:43;4.88;;;4.07;;
17441;SDS011;8838;50.144;8.176;2023-05-14T08:57:11;2.55;;;2.35;;
17441;SDS011;8838;50.144;8.176;2023-05-14T08:59:39;2.85;;;2.55;;
17441;SDS011;8838;50.144;8.176;2023-05-14T09:02:06;4.55;;;2.58;;
17441;SDS011;8838;50.144;8.176;2023-05-14T09:04:36;3.65;;;2.38;;
17441;SDS011;8838;50.144;8.176;2023-05-14T09:07:06;2.88;;;2.25;;
17441;SDS011;8838;50.144;8.176;2023-05-14T09:09:33;2.70;;;2.30;;
17441;SDS011;8838;50.144;8.176;2023-05-14T09:12:00;3.00;;;2.50;;
17441;SDS011;8838;50.144;8.176;2023-05-14T09:14:27;3.13;;;2.50;;
17441;SDS011;8838;50.144;8.176;2023-05-14T09:16:54;5.22;;;2.55;;
17441;SDS011;8838;50.144;8.176;2023-05-14T09:19:21;4.00;;;2.28;;
17441;SDS011;8838;50.144;8.176;2023-05-14T09:21:48;3.50;;;2.60;;
17441;SDS011;8838;50.144;8.176;2023-05-14T09:24:20;3.13;;;2.28;;
17441;SDS011;8838;50.144;8.176;2023-05-14T09:26:51;3.08;;;2.33;;
17441;SDS011;8838;50.144;8.176;2023-05-14T09:29:19;2.97;;;2.40;;
17441;SDS011;8838;50.144;8.176;2023-05-14T09:31:46;3.17;;;2.30;;
17441;SDS011;8838;50.144;8.176;2023-05-14T09:34:22;2.05;;;1.85;;
17441;SDS011;8838;50.144;8.176;2023-05-14T09:36:49;2.10;;;1.90;;
17441;SDS011;8838;50.144;8.176;2023-05-14T09:39:22;2.55;;;2.20;;
17441;SDS011;8838;50.144;8.176;2023-05-14T09:41:49;2.53;;;2.33;;
17441;SDS011;8838;50.144;8.176;2023-05-14T09:44:20;4.18;;;3.05;;
17441;SDS011;8838;50.144;8.176;2023-05-14T09:46:47;2.40;;;2.20;;
17441;SDS011;8838;50.144;8.176;2023-05-14T09:49:14;2.58;;;1.90;;
17441;SDS011;8838;50.144;8.176;2023-05-14T09:51:41;3.10;;;1.90;;
17441;SDS011;8838;50.144;8.176;2023-05-14T09:54:08;2.92;;;2.05;;
17441;SDS011;8838;50.144;8.176;2023-05-14T09:56:39;2.28;;;2.08;;
17441;SDS011;8838;50.144;8.176;2023-05-14T09:59:06;3.50;;;2.88;;
17441;SDS011;8838;50.144;8.176;2023-05-14T10:01:33;1.92;;;1.83;;
17441;SDS011;8838;50.144;8.176;2023-05-14T10:04:01;4.00;;;2.30;;
17441;SDS011;8838;50.144;8.176;2023-05-14T10:06:31;4.05;;;2.05;;
17441;SDS011;8838;50.144;8.176;2023-05-14T10:09:02;3.63;;;1.92;;
17441;SDS011;8838;50.144;8.176;2023-05-14T10:11:32;2.15;;;1.95;;
17441;SDS011;8838;50.144;8.176;2023-05-14T10:14:04;3.13;;;2.08;;
17441;SDS011;8838;50.144;8.176;2023-05-14T10:16:34;3.15;;;2.30;;
17441;SDS011;8838;50.144;8.176;2023-05-14T10:19:07;3.70;;;2.10;;
17441;SDS011;8838;50.144;8.176;2023-05-14T10:21:35;2.83;;;2.00;;
17441;SDS011;8838;50.144;8.176;2023-05-14T10:24:03;2.55;;;2.22;;
17441;SDS011;8838;50.144;8.176;2023-05-14T10:26:31;2.63;;;2.03;;
17441;SDS011;8838;50.144;8.176;2023-05-14T10:29:01;3.13;;;2.13;;
17441;SDS011;8838;50.144;8.176;2023-05-14T10:34:30;2.45;;;1.90;;
17441;SDS011;8838;50.144;8.176;2023-05-14T10:36:59;3.97;;;1.98;;
17441;SDS011;8838;50.144;8.176;2023-05-14T10:39:40;3.50;;;2.20;;
17441;SDS011;8838;50.144;8.176;2023-05-14T10:42:10;3.00;;;1.95;;
17441;SDS011;8838;50.144;8.176;2023-05-14T10:44:41;3.88;;;1.90;;
17441;SDS011;8838;50.144;8.176;2023-05-14T10:47:13;3.10;;;2.20;;
17441;SDS011;8838;50.144;8.176;2023-05-14T10:49:41;3.03;;;2.30;;
17441;SDS011;8838;50.144;8.176;2023-05-14T10:52:09;3.70;;;2.60;;
17441;SDS011;8838;50.144;8.176;2023-05-14T10:54:37;3.13;;;2.40;;
17441;SDS011;8838;50.144;8.176;2023-05-14T10:57:08;3.70;;;2.50;;
17441;SDS011;8838;50.144;8.176;2023-05-14T10:59:40;3.05;;;2.35;;
17441;SDS011;8838;50.144;8.176;2023-05-14T11:02:17;4.07;;;3.10;;
17441;SDS011;8838;50.144;8.176;2023-05-14T11:04:50;3.88;;;2.60;;
17441;SDS011;8838;50.144;8.176;2023-05-14T11:07:23;3.08;;;2.33;;
17441;SDS011;8838;50.144;8.176;2023-05-14T11:09:52;2.30;;;2.10;;
17441;SDS011;8838;50.144;8.176;2023-05-14T11:12:21;3.28;;;2.33;;
17441;SDS011;8838;50.144;8.176;2023-05-14T11:14:50;4.25;;;2.08;;
17441;SDS011;8838;50.144;8.176;2023-05-14T11:17:16;3.47;;;2.33;;
17441;SDS011;8838;50.144;8.176;2023-05-14T11:19:43;3.10;;;2.00;;
17441;SDS011;8838;50.144;8.176;2023-05-14T11:22:10;3.72;;;2.15;;
17441;SDS011;8838;50.144;8.176;2023-05-14T11:24:38;2.55;;;2.28;;
17441;SDS011;8838;50.144;8.176;2023-05-14T11:27:06;2.63;;;2.42;;
17441;SDS011;8838;50.144;8.176;2023-05-14T11:29:34;3.45;;;2.35;;
17441;SDS011;8838;50.144;8.176;2023-05-14T11:32:03;4.15;;;2.28;;
17441;SDS011;8838;50.144;8.176;2023-05-14T11:34:31;3.90;;;2.85;;
17441;SDS011;8838;50.144;8.176;2023-05-14T11:37:01;2.45;;;2.25;;
17441;SDS011;8838;50.144;8.176;2023-05-14T11:39:28;2.53;;;1.80;;
17441;SDS011;8838;50.144;8.176;2023-05-14T11:41:56;2.00;;;1.65;;
17441;SDS011;8838;50.144;8.176;2023-05-14T11:44:23;2.05;;;1.90;;
17441;SDS011;8838;50.144;8.176;2023-05-14T11:46:53;2.17;;;1.98;;
17441;SDS011;8838;50.144;8.176;2023-05-14T11:49:22;2.08;;;1.85;;
17441;SDS011;8838;50.144;8.176;2023-05-14T11:51:49;2.13;;;1.92;;
17441;SDS011;8838;50.144;8.176;2023-05-14T11:54:16;4.85;;;2.03;;
17441;SDS011;8838;50.144;8.176;2023-05-14T11:56:47;4.03;;;2.30;;
17441;SDS011;8838;50.144;8.176;2023-05-14T11:59:15;2.25;;;1.85;;
17441;SDS011;8838;50.144;8.176;2023-05-14T12:01:43;4.97;;;2.15;;
17441;SDS011;8838;50.144;8.176;2023-05-14T12:04:10;3.58;;;2.00;;
17441;SDS011;8838;50.144;8.176;2023-05-14T12:06:39;3.75;;;2.30;;
17441;SDS011;8838;50.144;8.176;2023-05-14T12:09:06;3.08;;;2.30;;
17441;SDS011;8838;50.144;8.176;2023-05-14T12:11:34;2.08;;;1.80;;
17441;SDS011;8838;50.144;8.176;2023-05-14T12:14:09;2.53;;;1.90;;
17441;SDS011;8838;50.144;8.176;2023-05-14T12:16:38;2.92;;;2.03;;
17441;SDS011;8838;50.144;8.176;2023-05-14T12:19:07;3.38;;;2.10;;
17441;SDS011;8838;50.144;8.176;2023-05-14T12:21:37;2.58;;;1.98;;
17441;SDS011;8838;50.144;8.176;2023-05-14T12:24:07;1.98;;;1.88;;
17441;SDS011;8838;50.144;8.176;2023-05-14T12:26:35;2.13;;;1.90;;
17441;SDS011;8838;50.144;8.176;2023-05-14T12:29:02;2.88;;;2.00;;
17441;SDS011;8838;50.144;8.176;2023-05-14T12:31:30;2.08;;;1.90;;
17441;SDS011;8838;50.144;8.176;2023-05-14T12:33:58;4.90;;;2.10;;
17441;SDS011;8838;50.144;8.176;2023-05-14T12:36:25;5.45;;;1.90;;
17441;SDS011;8838;50.144;8.176;2023-05-14T12:38:56;2.40;;;2.20;;
17441;SDS011;8838;50.144;8.176;2023-05-14T12:41:26;3.47;;;2.20;;
17441;SDS011;8838;50.144;8.176;2023-05-14T12:43:53;2.20;;;2.00;;
17441;SDS011;8838;50.144;8.176;2023-05-14T12:46:20;2.58;;;2.38;;
17441;SDS011;8838;50.144;8.176;2023-05-14T12:48:50;2.30;;;1.90;;
17441;SDS011;8838;50.144;8.176;2023-05-14T12:51:18;2.58;;;2.03;;
17441;SDS011;8838;50.144;8.176;2023-05-14T12:53:44;2.67;;;1.92;;
17441;SDS011;8838;50.144;8.176;2023-05-14T12:56:11;2.85;;;1.70;;
17441;SDS011;8838;50.144;8.176;2023-05-14T12:58:40;2.08;;;1.88;;
17441;SDS011;8838;50.144;8.176;2023-05-14T13:01:07;2.30;;;2.10;;
17441;SDS011;8838;50.144;8.176;2023-05-14T13:03:33;2.40;;;2.10;;
17441;SDS011;8838;50.144;8.176;2023-05-14T13:06:02;2.78;;;1.77;;
17441;SDS011;8838;50.144;8.176;2023-05-14T13:08:29;2.60;;;1.90;;
17441;SDS011;8838;50.144;8.176;2023-05-14T13:10:56;2.17;;;1.85;;
17441;SDS011;8838;50.144;8.176;2023-05-14T13:13:23;4.40;;;2.10;;
17441;SDS011;8838;50.144;8.176;2023-05-14T13:15:54;4.38;;;1.92;;
17441;SDS011;8838;50.144;8.176;2023-05-14T13:18:21;3.05;;;1.80;;
17441;SDS011;8838;50.144;8.176;2023-05-14T13:20:49;1.80;;;1.70;;
17441;SDS011;8838;50.144;8.176;2023-05-14T13:23:16;1.50;;;1.40;;
17441;SDS011;8838;50.144;8.176;2023-05-14T13:25:45;2.17;;;2.00;;
17441;SDS011;8838;50.144;8.176;2023-05-14T13:28:12;1.67;;;1.58;;
17441;SDS011;8838;50.144;8.176;2023-05-14T13:30:38;1.67;;;1.58;;
17441;SDS011;8838;50.144;8.176;2023-05-14T13:33:07;3.17;;;1.85;;
17441;SDS011;8838;50.144;8.176;2023-05-14T13:35:34;2.58;;;1.90;;
17441;SDS011;8838;50.144;8.176;2023-05-14T13:38:03;2.03;;;1.70;;
17441;SDS011;8838;50.144;8.176;2023-05-14T13:40:31;2.72;;;2.00;;
17441;SDS011;8838;50.144;8.176;2023-05-14T13:42:58;2.08;;;1.80;;
17441;SDS011;8838;50.144;8.176;2023-05-14T13:45:25;1.90;;;1.80;;
17441;SDS011;8838;50.144;8.176;2023-05-14T13:47:52;2.22;;;1.90;;
17441;SDS011;8838;50.144;8.176;2023-05-14T13:50:24;2.00;;;1.90;;
17441;SDS011;8838;50.144;8.176;2023-05-14T13:52:51;1.60;;;1.50;;
17441;SDS011;8838;50.144;8.176;2023-05-14T13:55:18;1.95;;;1.67;;
17441;SDS011;8838;50.144;8.176;2023-05-14T13:57:48;2.25;;;1.95;;
17441;SDS011;8838;50.144;8.176;2023-05-14T14:00:15;1.65;;;1.55;;
17441;SDS011;8838;50.144;8.176;2023-05-14T14:02:45;1.65;;;1.55;;
17441;SDS011;8838;50.144;8.176;2023-05-14T14:05:12;2.53;;;1.50;;
17441;SDS011;8838;50.144;8.176;2023-05-14T14:07:40;2.00;;;1.80;;
17441;SDS011;8838;50.144;8.176;2023-05-14T14:10:08;1.90;;;1.67;;
17441;SDS011;8838;50.144;8.176;2023-05-14T14:12:35;2.33;;;1.67;;
17441;SDS011;8838;50.144;8.176;2023-05-14T14:15:02;4.68;;;1.70;;
17441;SDS011;8838;50.144;8.176;2023-05-14T14:17:30;1.83;;;1.48;;
17441;SDS011;8838;50.144;8.176;2023-05-14T14:19:58;3.97;;;1.55;;
17441;SDS011;8838;50.144;8.176;2023-05-14T14:22:30;1.95;;;1.70;;
17441;SDS011;8838;50.144;8.176;2023-05-14T14:24:58;4.22;;;1.80;;
17441;SDS011;8838;50.144;8.176;2023-05-14T14:27:25;1.75;;;1.65;;
17441;SDS011;8838;50.144;8.176;2023-05-14T14:29:52;2.00;;;1.67;;
17441;SDS011;8838;50.144;8.176;2023-05-14T14:32:20;2.13;;;1.77;;
17441;SDS011;8838;50.144;8.176;2023-05-14T14:34:47;2.95;;;1.90;;
17441;SDS011;8838;50.144;8.176;2023-05-14T14:37:14;1.98;;;1.63;;
17441;SDS011;8838;50.144;8.176;2023-05-14T14:39:41;1.92;;;1.70;;
17441;SDS011;8838;50.144;8.176;2023-05-14T14:42:09;2.15;;;1.63;;
17441;SDS011;8838;50.144;8.176;2023-05-14T14:44:39;2.15;;;1.70;;
17441;SDS011;8838;50.144;8.176;2023-05-14T14:47:06;4.30;;;1.73;;
17441;SDS011;8838;50.144;8.176;2023-05-14T14:49:33;2.28;;;2.08;;
17441;SDS011;8838;50.144;8.176;2023-05-14T14:52:00;3.15;;;1.90;;
17441;SDS011;8838;50.144;8.176;2023-05-14T14:54:27;2.15;;;1.85;;
17441;SDS011;8838;50.144;8.176;2023-05-14T14:56:54;3.03;;;1.92;;
17441;SDS011;8838;50.144;8.176;2023-05-14T14:59:22;3.17;;;1.90;;
17441;SDS011;8838;50.144;8.176;2023-05-14T15:01:49;2.47;;;2.03;;
17441;SDS011;8838;50.144;8.176;2023-05-14T15:04:16;1.88;;;1.60;;
17441;SDS011;8838;50.144;8.176;2023-05-14T15:06:42;1.58;;;1.48;;